Dwyer, Mississippi
Current Conditions -  °F | °C
As of 2:35 AM on Saturday 01 Nov 2014 (Local Time) from KRNV Reporting Station
Clear Clear  
Wind Chill: 31°   Ceiling: Unl
Heat Index: 37°   Visibility: 10mi
Dew Point: 31°   Wind: 7mph
Humidity: 80%   Direction: 360°N
Pressure: 30.34"   Gusts: NA
Location:  33.5869°N, 90.6257°W
Report Text: KRNV 010735Z AUTO 36006KT 10SM CLR 03/00 A3034 RMK AO2 T00261005
Loading
Personal Weather Stations






























Interactive Weather Map
Tropical Storm Tracking
New forecast layout! Learn more

10-Day Weather Forecast

Advertisements
Track Severe Weather on mobile